Time;durP1;ratioP1;P1;durP2;ratioP2;P2;SDS_P1;SDS_P2;PMS_P1;PMS_P2;Temp;Humidity;BMP_temperature;BMP_pressure;BME280_temperature;BME280_humidity;BME280_pressure;Samples;Min_cycle;Max_cycle;Signal;HPM_P1;HPM_P2
2021/11/11 00:00:22;;;;;;;;;70.75;50.50;;;;;7.08;68.79;102367.16;5060103;28;45284;-78
2021/11/11 00:02:48;;;;;;;;;71.25;52.00;;;;;7.06;68.61;102359.28;5060791;28;45500;-78
2021/11/11 00:05:14;;;;;;;;;69.00;51.25;;;;;7.09;68.81;102355.81;5061748;28;45334;-79
2021/11/11 00:07:39;;;;;;;;;65.25;47.75;;;;;7.05;68.90;102357.56;5061512;28;45568;-78
2021/11/11 00:10:09;;;;;;;;;70.25;51.00;;;;;7.06;68.93;102350.59;5061023;28;45395;-77
2021/11/11 00:12:35;;;;;;;;;70.00;52.25;;;;;7.06;69.11;102348.81;5072699;28;45442;-78
2021/11/11 00:15:06;;;;;;;;;64.25;50.50;;;;;7.06;69.01;102350.59;5043451;28;45240;-78
2021/11/11 00:17:31;;;;;;;;;65.25;50.25;;;;;7.08;69.04;102346.25;5040518;28;46455;-79
2021/11/11 00:19:57;;;;;;;;;53.25;40.50;;;;;7.10;68.58;102344.50;5043909;28;45212;-79
2021/11/11 00:22:23;;;;;;;;;68.50;52.25;;;;;7.09;69.27;102341.00;5054398;28;45218;-79
2021/11/11 00:24:49;;;;;;;;;61.50;49.50;;;;;7.14;68.87;102337.56;5061030;28;45449;-79
2021/11/11 00:27:14;;;;;;;;;64.00;50.50;;;;;7.13;68.99;102334.09;5060853;28;46087;-78
2021/11/11 00:29:40;;;;;;;;;65.00;52.00;;;;;7.16;68.51;102331.47;5060607;28;45219;-78
2021/11/11 00:32:06;;;;;;;;;61.50;47.75;;;;;7.13;68.83;102331.47;5061134;28;45208;-78
2021/11/11 00:34:32;;;;;;;;;66.25;51.00;;;;;7.14;68.43;102330.59;5059842;28;45919;-78
2021/11/11 00:36:58;;;;;;;;;67.25;50.50;;;;;7.14;68.36;102335.81;5060621;28;45478;-79
2021/11/11 00:39:23;;;;;;;;;68.75;53.00;;;;;7.15;68.55;102339.31;5061072;28;45343;-79
2021/11/11 00:41:49;;;;;;;;;64.00;49.00;;;;;7.11;68.28;102329.69;5044885;28;45754;-79
2021/11/11 00:44:15;;;;;;;;;71.25;52.00;;;;;7.08;67.65;102328.81;5060552;28;45420;-78
2021/11/11 00:46:40;;;;;;;;;67.75;51.50;;;;;7.06;68.24;102329.69;5060342;28;46410;-79
2021/11/11 00:49:06;;;;;;;;;67.50;52.00;;;;;7.01;68.64;102328.75;5060924;28;45429;-79
2021/11/11 00:51:37;;;;;;;;;73.25;54.00;;;;;6.98;68.38;102335.72;5060248;28;46888;-78
2021/11/11 00:54:03;;;;;;;;;68.25;50.00;;;;;6.97;68.83;102325.22;5060459;28;45425;-78
2021/11/11 00:56:29;;;;;;;;;62.00;48.50;;;;;6.96;68.65;102318.28;5056683;28;45407;-77
2021/11/11 00:58:55;;;;;;;;;65.00;47.00;;;;;6.94;68.69;102312.16;5051735;28;45699;-77
2021/11/11 01:01:21;;;;;;;;;64.25;48.00;;;;;6.98;68.47;102321.75;5040381;28;45489;-77
2021/11/11 01:03:49;;;;;;;;;64.50;49.50;;;;;6.97;68.84;102315.66;5040615;28;45251;-77
2021/11/11 01:06:16;;;;;;;;;68.25;50.25;;;;;6.97;68.60;102310.44;5046797;28;46140;-79
2021/11/11 01:08:41;;;;;;;;;61.50;48.25;;;;;6.96;68.84;102300.81;5059505;28;45792;-79
2021/11/11 01:11:07;;;;;;;;;63.50;50.00;;;;;6.98;68.74;102308.69;5056492;28;45399;-78
2021/11/11 01:13:34;;;;;;;;;69.75;51.25;;;;;7.00;68.36;102311.31;5038963;28;46227;-79
2021/11/11 01:16:01;;;;;;;;;67.75;51.00;;;;;7.01;68.43;102315.69;5055901;28;46279;-77
2021/11/11 01:18:27;;;;;;;;;67.00;50.00;;;;;6.97;68.15;102310.44;5052693;28;45665;-76
2021/11/11 01:20:52;;;;;;;;;65.75;50.25;;;;;6.94;68.41;102305.16;5060593;28;45246;-78
2021/11/11 01:23:17;;;;;;;;;61.25;49.75;;;;;6.90;68.25;102319.09;5060208;28;45406;-78
2021/11/11 01:25:43;;;;;;;;;64.25;47.75;;;;;6.87;68.20;102313.81;5056828;28;47152;-79
2021/11/11 01:28:09;;;;;;;;;68.75;51.00;;;;;6.84;68.36;102325.13;5058669;28;45278;-79
2021/11/11 01:30:37;;;;;;;;;58.75;47.50;;;;;6.83;67.95;102317.28;5060516;28;45326;-80
2021/11/11 01:33:04;;;;;;;;;59.50;46.00;;;;;6.83;68.74;102317.28;5059674;28;45283;-79
2021/11/11 01:35:29;;;;;;;;;66.00;50.50;;;;;6.81;68.94;102295.50;5059465;28;45667;-79
2021/11/11 01:37:55;;;;;;;;;62.25;48.00;;;;;6.82;68.26;102299.84;5059756;28;45443;-81
2021/11/11 01:40:20;;;;;;;;;70.25;49.75;;;;;6.82;68.38;102292.00;5060292;28;45417;-81
2021/11/11 01:42:52;;;;;;;;;69.00;51.00;;;;;6.80;67.96;102280.66;5043947;28;46485;-78
2021/11/11 01:45:25;;;;;;;;;65.00;49.50;;;;;6.78;68.28;102279.78;5049542;28;45688;-78
2021/11/11 01:47:52;;;;;;;;;61.50;47.50;;;;;6.80;68.44;102289.38;5047211;28;45220;-78
2021/11/11 01:50:17;;;;;;;;;74.75;52.75;;;;;6.75;68.42;102278.00;5060012;28;45356;-78
2021/11/11 01:52:43;;;;;;;;;60.25;46.50;;;;;6.75;67.96;102286.72;5059934;28;45520;-78
2021/11/11 01:55:09;;;;;;;;;65.25;48.75;;;;;6.70;68.11;102280.59;5052935;28;47327;-79
2021/11/11 01:57:35;;;;;;;;;62.25;47.75;;;;;6.69;68.07;102284.06;5044533;28;45383;-81
2021/11/11 02:00:04;;;;;;;;;60.50;48.00;;;;;6.64;67.82;102276.19;5039784;28;45386;-81
2021/11/11 02:02:30;;;;;;;;;56.50;43.25;;;;;6.60;68.23;102278.75;5039354;28;45711;-81
2021/11/11 02:04:56;;;;;;;;;60.00;47.75;;;;;6.61;68.16;102280.53;5039421;28;46290;-81
2021/11/11 02:07:22;;;;;;;;;59.50;45.25;;;;;6.61;68.27;102280.53;5058973;28;45856;-81
2021/11/11 02:09:48;;;;;;;;;58.25;44.50;;;;;6.56;67.77;102277.00;5059587;28;45472;-81
2021/11/11 02:12:14;;;;;;;;;57.25;48.50;;;;;6.55;68.23;102280.44;5075352;27;45539;-80
2021/11/11 02:14:40;;;;;;;;;56.25;43.50;;;;;6.55;67.82;102288.28;5058613;28;45417;-80
2021/11/11 02:17:06;;;;;;;;;56.75;44.00;;;;;6.55;67.60;102286.56;5055827;28;45558;-80
2021/11/11 02:19:31;;;;;;;;;60.50;45.00;;;;;6.54;67.98;102282.22;5059548;28;45366;-81
2021/11/11 02:21:57;;;;;;;;;55.25;43.75;;;;;6.49;67.68;102268.22;5043265;28;45387;-80
2021/11/11 02:24:23;;;;;;;;;54.50;43.75;;;;;6.47;67.56;102270.81;5042652;28;45239;-80
2021/11/11 02:26:51;;;;;;;;;55.75;44.00;;;;;6.46;67.78;102274.31;5051926;28;45918;-81
2021/11/11 02:29:17;;;;;;;;;56.25;44.50;;;;;6.47;68.19;102273.41;5057818;28;45531;-81
2021/11/11 02:31:44;;;;;;;;;56.75;46.50;;;;;6.47;67.90;102277.78;5059304;28;45485;-77
2021/11/11 02:34:12;;;;;;;;;59.25;47.25;;;;;6.46;68.09;102278.63;5057116;28;47504;-79
2021/11/11 02:37:01;;;;;;;;;61.00;48.25;;;;;6.45;68.11;102279.50;5048425;28;45246;-79
2021/11/11 02:39:36;;;;;;;;;60.00;45.75;;;;;6.47;67.95;102283.03;5048166;28;45547;-79
2021/11/11 02:42:03;;;;;;;;;64.75;45.50;;;;;6.44;68.30;102267.31;5062661;28;46918;-78
2021/11/11 02:44:32;;;;;;;;;60.25;45.25;;;;;6.46;68.36;102269.06;5061787;28;45448;-78
2021/11/11 02:46:58;;;;;;;;;63.00;47.25;;;;;6.47;68.19;102260.34;5061288;28;45947;-78
2021/11/11 02:49:31;;;;;;;;;61.75;48.75;;;;;6.46;68.04;102274.31;5061424;28;45446;-77
2021/11/11 02:51:57;;;;;;;;;63.75;50.25;;;;;6.42;68.05;102285.56;5062877;28;45414;-78
2021/11/11 02:54:22;;;;;;;;;65.75;49.50;;;;;6.37;68.21;102288.13;5056801;28;48194;-78
2021/11/11 02:56:47;;;;;;;;;57.25;45.50;;;;;6.33;68.09;102288.09;5054615;28;46381;-78
2021/11/11 02:59:13;;;;;;;;;66.25;50.00;;;;;6.33;68.32;102285.47;5042849;28;45336;-78
2021/11/11 03:01:38;;;;;;;;;59.25;46.25;;;;;6.30;68.20;102281.09;5044179;28;45374;-78
2021/11/11 03:04:03;;;;;;;;;56.75;46.25;;;;;6.30;68.42;102295.03;5054968;28;45202;-78
2021/11/11 03:06:29;;;;;;;;;60.50;47.50;;;;;6.30;68.63;102299.38;5061618;28;45232;-78
2021/11/11 03:08:54;;;;;;;;;66.75;49.00;;;;;6.29;68.87;102298.53;5061558;28;45775;-78
2021/11/11 03:11:22;;;;;;;;;63.25;49.25;;;;;6.28;69.03;102299.38;5060982;28;45598;-78
2021/11/11 03:13:48;;;;;;;;;64.50;46.00;;;;;6.27;69.01;102288.91;5062473;28;45559;-78
2021/11/11 03:16:13;;;;;;;;;63.00;47.25;;;;;6.29;68.85;102289.81;5060665;28;45289;-78
2021/11/11 03:18:39;;;;;;;;;62.25;48.00;;;;;6.30;68.82;102291.53;5062190;28;45283;-77
2021/11/11 03:21:04;;;;;;;;;58.75;45.75;;;;;6.34;69.04;102292.47;5061528;28;45392;-80
2021/11/11 03:23:30;;;;;;;;;61.75;45.75;;;;;6.30;68.91;102284.59;5077926;28;48200;-76
2021/11/11 03:25:55;;;;;;;;;59.75;46.00;;;;;6.33;68.87;102291.56;5056863;28;45374;-79
2021/11/11 03:28:21;;;;;;;;;57.25;43.50;;;;;6.35;68.98;102283.75;5050561;28;45280;-79
2021/11/11 03:30:46;;;;;;;;;54.50;43.25;;;;;6.33;69.10;102280.25;5056868;28;45482;-79
2021/11/11 03:33:12;;;;;;;;;61.75;48.00;;;;;6.34;68.75;102277.66;5060017;28;46034;-79
2021/11/11 03:35:37;;;;;;;;;58.75;46.25;;;;;6.35;68.66;102281.13;5062295;28;45204;-80
2021/11/11 03:38:04;;;;;;;;;58.75;44.75;;;;;6.36;68.71;102286.41;5062088;28;45161;-80
2021/11/11 03:40:34;;;;;;;;;58.25;43.50;;;;;6.37;68.76;102295.13;5061521;28;45811;-80
2021/11/11 03:43:00;;;;;;;;;53.25;45.25;;;;;6.38;68.50;102294.22;5061613;28;45479;-77
2021/11/11 03:45:27;;;;;;;;;62.00;46.25;;;;;6.39;68.40;102296.00;5061982;28;45823;-77
2021/11/11 03:47:53;;;;;;;;;58.50;45.00;;;;;6.38;68.46;102294.22;5061717;28;45236;-78
2021/11/11 03:50:20;;;;;;;;;56.25;45.00;;;;;6.37;68.56;102292.50;5059747;28;45473;-78
2021/11/11 03:52:46;;;;;;;;;55.50;43.75;;;;;6.36;68.47;102290.72;5061576;28;45287;-78
2021/11/11 03:55:14;;;;;;;;;56.00;42.75;;;;;6.38;68.84;102289.00;5061693;28;45442;-79
2021/11/11 03:57:40;;;;;;;;;60.00;47.00;;;;;6.39;68.50;102293.38;5051962;28;45398;-80
2021/11/11 04:00:12;;;;;;;;;57.25;44.75;;;;;6.38;68.83;102289.91;5061755;28;45406;-76
2021/11/11 04:02:38;;;;;;;;;56.75;44.25;;;;;6.38;68.65;102295.13;5076650;28;45519;-76
2021/11/11 04:05:04;;;;;;;;;55.75;44.75;;;;;6.38;68.66;102292.50;5059926;28;45439;-76
2021/11/11 04:07:30;;;;;;;;;57.75;45.75;;;;;6.39;68.40;102290.78;5060394;28;45310;-78
2021/11/11 04:09:55;;;;;;;;;58.75;46.00;;;;;6.40;68.13;102295.13;5061614;28;45413;-78
2021/11/11 04:12:21;;;;;;;;;56.50;45.25;;;;;6.38;68.46;102296.84;5061223;28;45440;-78
2021/11/11 04:14:46;;;;;;;;;56.50;42.00;;;;;6.37;67.98;102295.13;5061600;28;45329;-79
2021/11/11 04:17:11;;;;;;;;;56.00;41.75;;;;;6.35;67.99;102305.53;5060352;28;45354;-78
2021/11/11 04:19:37;;;;;;;;;64.00;45.00;;;;;6.36;67.80;102307.28;5061055;28;45241;-78
2021/11/11 04:22:03;;;;;;;;;52.25;42.75;;;;;6.38;68.29;102315.13;5061458;28;46352;-78
2021/11/11 04:24:29;;;;;;;;;51.50;42.25;;;;;6.35;68.40;102312.47;5059736;28;45862;-80
2021/11/11 04:26:59;;;;;;;;;59.00;43.25;;;;;6.36;67.79;102311.63;5076753;27;45244;-79
2021/11/11 04:29:27;;;;;;;;;56.25;43.00;;;;;6.35;67.43;102310.75;5060896;28;45506;-79
2021/11/11 04:31:57;;;;;;;;;52.25;40.00;;;;;6.34;67.37;102311.63;5060507;28;45452;-78
2021/11/11 04:34:23;;;;;;;;;54.00;41.75;;;;;6.32;67.16;102315.09;5062882;28;46053;-77
2021/11/11 04:45:02;;;;;;;;;53.00;41.75;;;;;6.18;66.95;102327.13;5061182;28;45197;-77
2021/11/11 04:50:56;;;;;;;;;57.75;43.50;;;;;6.12;67.03;102314.00;5061100;28;45343;-77
2021/11/11 05:03:37;;;;;;;;;57.00;46.25;;;;;5.94;68.28;102332.91;5060288;28;45303;-78
2021/11/11 05:06:03;;;;;;;;;57.50;46.25;;;;;5.97;68.14;102336.41;5044233;28;45468;-79
2021/11/11 05:08:30;;;;;;;;;57.00;41.50;;;;;6.00;68.20;102335.56;5060636;28;45523;-79
2021/11/11 05:10:56;;;;;;;;;55.25;46.25;;;;;6.01;68.09;102333.84;5059726;28;45605;-79
2021/11/11 05:13:22;;;;;;;;;57.00;45.75;;;;;6.05;68.55;102331.28;5059217;28;48338;-80
2021/11/11 05:15:48;;;;;;;;;59.75;46.25;;;;;6.05;68.51;102328.66;5055824;28;45278;-78
2021/11/11 05:18:13;;;;;;;;;61.00;47.50;;;;;6.07;68.28;102332.19;5047082;28;45157;-79
2021/11/11 05:20:39;;;;;;;;;61.75;49.50;;;;;6.05;67.70;102331.28;5060383;28;45251;-79
2021/11/11 05:23:04;;;;;;;;;61.25;45.00;;;;;6.06;68.05;102337.38;5058978;28;47728;-79
2021/11/11 05:25:30;;;;;;;;;61.50;49.00;;;;;6.05;68.49;102339.13;5056756;28;45598;-80
2021/11/11 05:27:56;;;;;;;;;54.00;43.25;;;;;5.99;68.32;102339.06;5058242;28;45272;-80
2021/11/11 05:30:21;;;;;;;;;60.50;45.75;;;;;6.02;68.43;102346.03;5058977;28;46970;-81
2021/11/11 05:32:48;;;;;;;;;58.75;45.50;;;;;6.03;68.48;102343.44;5059559;28;45455;-80
2021/11/11 05:35:14;;;;;;;;;56.25;45.25;;;;;6.06;68.37;102348.72;5060314;28;45587;-80
2021/11/11 05:37:41;;;;;;;;;60.50;45.00;;;;;6.08;68.68;102354.84;5072941;27;45679;-79
2021/11/11 05:40:08;;;;;;;;;58.00;45.00;;;;;6.10;68.54;102354.00;5075279;28;47024;-77
2021/11/11 05:42:34;;;;;;;;;52.00;41.00;;;;;6.11;68.73;102364.47;5053612;28;46432;-77
2021/11/11 05:44:59;;;;;;;;;57.25;45.25;;;;;6.12;68.52;102365.34;5074561;28;45966;-78
2021/11/11 05:47:25;;;;;;;;;57.75;44.00;;;;;6.13;68.60;102378.41;5059219;28;45215;-78
2021/11/11 05:49:50;;;;;;;;;57.25;41.50;;;;;6.15;68.45;102381.06;5058664;28;46330;-77
2021/11/11 05:52:16;;;;;;;;;63.50;45.50;;;;;6.16;68.38;102381.06;5057820;28;46874;-77
2021/11/11 05:54:42;;;;;;;;;53.25;41.25;;;;;6.18;68.40;102391.50;5058593;28;45972;-77
2021/11/11 05:57:08;;;;;;;;;56.50;44.75;;;;;6.18;68.67;102388.91;5075010;28;45476;-76
2021/11/11 05:59:39;;;;;;;;;52.25;43.25;;;;;6.25;68.64;102400.28;5074367;28;46199;-76
2021/11/11 06:02:06;;;;;;;;;51.50;42.75;;;;;6.24;68.11;102396.81;5058348;28;45312;-76
2021/11/11 06:04:31;;;;;;;;;56.75;43.50;;;;;6.27;68.37;102401.22;5055272;28;45888;-76
2021/11/11 06:06:56;;;;;;;;;49.25;39.75;;;;;6.26;68.35;102405.56;5059163;28;45412;-77
2021/11/11 06:09:22;;;;;;;;;52.25;40.75;;;;;6.28;67.74;102419.50;5058682;28;45390;-76
2021/11/11 06:11:47;;;;;;;;;46.00;40.00;;;;;6.28;68.05;102419.50;5075404;28;47425;-78
2021/11/11 06:14:13;;;;;;;;;54.50;44.50;;;;;6.29;67.50;102416.03;5059144;28;45405;-78
2021/11/11 06:16:38;;;;;;;;;56.50;41.75;;;;;6.29;67.68;102420.38;5058555;28;45365;-78
2021/11/11 06:19:06;;;;;;;;;54.75;43.50;;;;;6.30;67.80;102428.22;5057928;28;45557;-79
2021/11/11 06:21:32;;;;;;;;;50.25;41.25;;;;;6.31;67.43;102429.13;5059599;28;45438;-76
2021/11/11 06:23:57;;;;;;;;;58.50;43.50;;;;;6.32;67.48;102430.00;5075082;28;46242;-78
2021/11/11 06:26:23;;;;;;;;;55.50;43.50;;;;;6.28;67.50;102432.56;5058167;28;45450;-79
2021/11/11 06:28:50;;;;;;;;;57.00;42.75;;;;;6.27;67.40;102441.25;5058668;28;45526;-79
2021/11/11 06:31:16;;;;;;;;;57.75;43.75;;;;;6.26;66.77;102444.72;5054287;28;45421;-77
2021/11/11 06:33:42;;;;;;;;;61.00;42.50;;;;;6.24;66.99;102443.84;5041590;28;45268;-78
2021/11/11 06:36:08;;;;;;;;;48.25;38.00;;;;;6.25;67.63;102462.97;5039424;28;45367;-79
2021/11/11 06:38:34;;;;;;;;;54.00;41.25;;;;;6.24;67.32;102466.44;5058433;28;45409;-76
2021/11/11 06:40:59;;;;;;;;;54.75;41.25;;;;;6.22;67.50;102461.22;5059130;28;45401;-75
2021/11/11 06:43:24;;;;;;;;;22.25;19.50;;;;;6.20;67.47;102457.69;5058828;28;45381;-75
2021/11/11 06:45:50;;;;;;;;;50.00;39.75;;;;;6.20;67.14;102473.34;5047153;28;45286;-75
2021/11/11 06:48:16;;;;;;;;;52.00;38.50;;;;;6.22;67.50;102482.09;5056447;28;45358;-76
2021/11/11 06:50:43;;;;;;;;;37.00;34.75;;;;;6.22;67.33;102482.09;5053938;28;45557;-77
2021/11/11 06:53:10;;;;;;;;;47.50;40.00;;;;;6.23;67.27;102489.06;5057287;28;45426;-78
2021/11/11 06:55:36;;;;;;;;;51.50;38.00;;;;;6.26;67.16;102496.94;5059330;28;45325;-77
2021/11/11 06:58:03;;;;;;;;;52.25;39.25;;;;;6.23;66.99;102486.47;5058844;28;45437;-77
2021/11/11 07:00:29;;;;;;;;;51.25;40.00;;;;;6.22;67.15;102481.22;5074586;28;46209;-76
2021/11/11 07:02:54;;;;;;;;;39.75;35.75;;;;;6.23;67.49;102485.56;5052893;28;45727;-76
2021/11/11 07:05:20;;;;;;;;;34.50;33.50;;;;;6.23;67.44;102482.97;5074169;28;45452;-76
2021/11/11 07:07:45;;;;;;;;;46.00;37.25;;;;;6.22;67.32;102481.22;5046054;28;45413;-76
2021/11/11 07:10:11;;;;;;;;;45.25;36.50;;;;;6.21;67.12;102480.34;5045156;28;45650;-77
2021/11/11 07:12:37;;;;;;;;;42.25;36.50;;;;;6.19;67.29;102479.44;5057606;28;45426;-77
2021/11/11 07:15:06;;;;;;;;;40.00;36.75;;;;;6.14;67.01;102484.63;5058444;28;45417;-76
2021/11/11 07:17:33;;;;;;;;;50.75;38.00;;;;;6.12;67.16;102485.44;5057626;28;45548;-77
2021/11/11 07:19:59;;;;;;;;;41.25;36.75;;;;;6.14;67.16;102496.78;5058674;28;45546;-76
2021/11/11 07:22:25;;;;;;;;;46.50;35.25;;;;;6.08;67.35;102490.63;5058890;28;45407;-75
2021/11/11 07:24:50;;;;;;;;;46.75;37.00;;;;;6.11;67.42;102496.72;5050945;28;45289;-75
2021/11/11 07:27:15;;;;;;;;;51.25;40.50;;;;;6.05;67.53;102494.91;5060159;28;45854;-75
2021/11/11 07:29:41;;;;;;;;;46.75;38.00;;;;;6.06;67.68;102494.03;5062034;28;46168;-76
2021/11/11 07:32:06;;;;;;;;;40.25;32.75;;;;;6.06;67.35;102502.75;5061049;28;45508;-76
2021/11/11 07:34:33;;;;;;;;;46.00;37.75;;;;;6.05;67.12;102498.34;5061455;28;45313;-76
2021/11/11 07:36:59;;;;;;;;;46.00;36.00;;;;;6.05;67.19;102494.91;5061336;28;45481;-76
2021/11/11 07:39:25;;;;;;;;;38.75;34.00;;;;;6.02;67.24;102494.84;5041935;28;45513;-76
2021/11/11 07:41:50;;;;;;;;;51.25;37.00;;;;;5.99;67.50;102490.44;5052956;28;45391;-77
2021/11/11 07:44:16;;;;;;;;;42.00;37.75;;;;;6.00;67.45;102486.97;5062148;28;45335;-77
2021/11/11 07:46:42;;;;;;;;;43.25;35.75;;;;;6.01;67.42;102488.75;5061294;28;45247;-77
2021/11/11 07:49:09;;;;;;;;;43.50;37.00;;;;;6.03;67.30;102486.13;5061696;28;46214;-77
2021/11/11 07:51:35;;;;;;;;;55.00;38.00;;;;;6.02;67.25;102479.19;5061773;28;46046;-78
2021/11/11 07:54:02;;;;;;;;;57.00;43.75;;;;;6.00;67.14;102473.06;5060194;28;45338;-78
2021/11/11 07:56:28;;;;;;;;;50.75;39.25;;;;;5.99;66.96;102474.78;5060820;28;45498;-78
2021/11/11 07:58:55;;;;;;;;;56.75;42.50;;;;;5.93;67.05;102479.91;5057910;28;46140;-76
2021/11/11 08:01:20;;;;;;;;;55.00;39.25;;;;;5.85;67.38;102469.38;5041595;28;45216;-76
2021/11/11 08:03:46;;;;;;;;;57.00;43.50;;;;;5.84;67.21;102468.50;5041384;28;45164;-76
2021/11/11 08:06:12;;;;;;;;;55.25;43.25;;;;;5.81;67.05;102459.72;5041337;28;45243;-75
2021/11/11 08:08:38;;;;;;;;;55.50;42.75;;;;;5.80;67.35;102460.59;5041150;28;46255;-76
2021/11/11 08:11:04;;;;;;;;;44.25;37.50;;;;;5.76;67.33;102457.06;5057879;28;45624;-76
2021/11/11 08:13:30;;;;;;;;;52.75;39.25;;;;;5.76;67.48;102470.09;5061416;28;45323;-76
2021/11/11 08:15:56;;;;;;;;;52.50;42.00;;;;;5.77;67.86;102469.25;5060438;28;45639;-76
2021/11/11 08:18:22;;;;;;;;;59.25;41.25;;;;;5.84;67.89;102472.81;5060732;28;45477;-75
2021/11/11 08:20:49;;;;;;;;;56.75;42.75;;;;;5.84;68.19;102471.09;5061226;28;45207;-76
2021/11/11 08:23:16;;;;;;;;;60.25;42.25;;;;;5.86;67.96;102465.91;5061238;28;45171;-76
2021/11/11 08:25:43;;;;;;;;;57.00;44.25;;;;;5.87;68.09;102459.84;5058827;28;45730;-76
2021/11/11 08:28:09;;;;;;;;;57.00;42.50;;;;;5.93;67.86;102462.50;5061176;28;45306;-76
2021/11/11 08:30:34;;;;;;;;;54.75;42.00;;;;;5.97;67.72;102463.47;5061384;28;45270;-76
2021/11/11 08:33:00;;;;;;;;;56.25;39.25;;;;;6.01;67.58;102466.97;5060351;28;45412;-74
2021/11/11 08:37:00;;;;;;;;;20.75;19.00;;;;;7.60;77.72;102444.28;5009238;28;45479;-72
2021/11/11 08:39:26;;;;;;;;;21.75;16.50;;;;;9.04;75.15;102424.78;4994977;28;46914;-73
2021/11/11 08:41:52;;;;;;;;;17.50;16.00;;;;;10.35;73.07;102414.00;5008539;27;45150;-74
2021/11/11 08:47:18;;;;;;;;;51.75;39.25;;;;;11.86;61.09;102414.56;5112596;27;45238;-74
2021/11/11 08:49:46;;;;;;;;;56.25;43.25;;;;;11.43;60.06;102427.31;5113801;27;45218;-75
2021/11/11 08:52:14;;;;;;;;;52.25;41.50;;;;;10.79;59.43;102432.16;5113272;27;45339;-74
2021/11/11 08:54:39;;;;;;;;;53.50;40.50;;;;;10.24;59.90;102436.84;5104563;27;45876;-75
2021/11/11 08:57:06;;;;;;;;;55.75;43.00;;;;;9.79;60.37;102429.97;5129470;27;47309;-75
2021/11/11 08:59:32;;;;;;;;;56.25;44.00;;;;;9.41;60.76;102429.13;5116252;27;45254;-74
2021/11/11 09:01:57;;;;;;;;;58.00;44.50;;;;;9.08;61.04;102426.53;5115965;27;45261;-74
2021/11/11 09:04:23;;;;;;;;;57.00;44.75;;;;;8.73;61.62;102426.50;5117306;27;45152;-75
2021/11/11 09:06:50;;;;;;;;;53.25;43.25;;;;;8.52;62.11;102429.91;5118312;27;45152;-79
2021/11/11 09:09:17;;;;;;;;;54.25;43.50;;;;;8.33;62.79;102430.69;5125661;27;45424;-76
2021/11/11 09:11:43;;;;;;;;;58.75;45.25;;;;;8.23;63.10;102436.78;5114363;27;45628;-76
2021/11/11 09:14:09;;;;;;;;;59.75;46.50;;;;;8.07;63.73;102435.84;5114478;27;45581;-77
2021/11/11 09:16:38;;;;;;;;;55.75;43.75;;;;;7.97;63.54;102430.56;5112381;27;46454;-77
2021/11/11 09:19:05;;;;;;;;;60.25;47.25;;;;;7.88;63.56;102431.38;5113354;27;46054;-77
2021/11/11 09:21:30;;;;;;;;;61.00;49.25;;;;;7.77;64.13;102427.81;5115168;27;45483;-77
2021/11/11 09:23:56;;;;;;;;;64.00;47.75;;;;;7.65;64.33;102429.47;5116986;27;45333;-76
2021/11/11 09:26:22;;;;;;;;;69.00;50.00;;;;;7.59;64.71;102425.94;5113594;27;45354;-77
2021/11/11 09:28:47;;;;;;;;;68.50;50.00;;;;;7.54;65.11;102428.53;5117147;27;45516;-76
2021/11/11 09:31:14;;;;;;;;;63.50;49.00;;;;;7.51;65.35;102442.47;5113994;27;46172;-76
2021/11/11 09:33:42;;;;;;;;;65.00;51.25;;;;;7.50;65.29;102430.25;5116669;27;45258;-76
2021/11/11 09:36:07;;;;;;;;;62.75;50.00;;;;;7.48;65.29;102425.88;5116881;27;46597;-75
2021/11/11 09:38:33;;;;;;;;;70.25;53.25;;;;;7.50;65.46;102426.75;5114905;27;45453;-76
2021/11/11 09:40:59;;;;;;;;;70.25;52.50;;;;;7.49;65.65;102425.00;5107931;27;45271;-76
2021/11/11 09:43:24;;;;;;;;;70.25;51.75;;;;;7.49;65.42;102417.16;5112550;27;45407;-76
2021/11/11 09:45:50;;;;;;;;;74.25;55.50;;;;;7.48;65.74;102424.13;5106880;27;45514;-76
2021/11/11 09:48:17;;;;;;;;;64.25;50.75;;;;;7.48;65.84;102418.88;5115267;27;45510;-75
2021/11/11 09:50:45;;;;;;;;;68.75;54.00;;;;;7.45;65.35;102410.16;5124591;27;45431;-75
2021/11/11 09:53:15;;;;;;;;;67.25;51.25;;;;;7.36;65.17;102405.75;5108067;27;45461;-75
2021/11/11 09:58:38;;;;;;;;;67.00;51.25;;;;;7.36;65.62;102417.06;5095952;27;45969;-75
2021/11/11 10:01:24;;;;;;;;;70.00;54.00;;;;;7.37;65.54;102410.09;5088056;27;45381;-75
2021/11/11 10:03:52;;;;;;;;;71.50;53.25;;;;;7.37;65.58;102397.88;5105670;27;46101;-75
2021/11/11 10:06:25;;;;;;;;;73.50;54.75;;;;;7.36;65.86;102398.75;5098366;27;45665;-76
2021/11/11 10:09:10;;;;;;;;;72.00;53.00;;;;;7.38;65.95;102401.38;5100145;27;45188;-75
2021/11/11 10:11:52;;;;;;;;;69.50;51.75;;;;;7.36;66.04;102401.34;5092770;27;45530;-75
2021/11/11 10:14:29;;;;;;;;;76.75;55.50;;;;;7.37;66.60;102392.66;5091286;27;45367;-75
2021/11/11 10:17:01;;;;;;;;;73.00;55.50;;;;;7.37;66.38;102392.66;5102242;27;46495;-75
2021/11/11 10:19:29;;;;;;;;;75.25;55.50;;;;;7.33;66.25;102390.91;5100558;27;45883;-75
2021/11/11 10:22:22;;;;;;;;;69.25;55.25;;;;;7.32;66.33;102395.25;5102533;27;45230;-75
2021/11/11 10:24:51;;;;;;;;;73.50;57.00;;;;;7.37;66.49;102395.28;5094043;27;45487;-74
2021/11/11 10:27:38;;;;;;;;;74.00;56.50;;;;;7.37;66.75;102384.81;5099606;27;46281;-73
2021/11/11 10:30:28;;;;;;;;;77.00;57.50;;;;;7.42;66.86;102379.59;5101101;27;45156;-73
2021/11/11 10:32:55;;;;;;;;;79.75;58.00;;;;;7.46;67.12;102385.75;5102073;27;45375;-73
2021/11/11 10:35:27;;;;;;;;;74.00;56.00;;;;;7.48;66.89;102390.09;5095066;27;45573;-74
2021/11/11 10:37:53;;;;;;;;;76.75;57.00;;;;;7.49;67.24;102396.22;5086638;27;45567;-74
2021/11/11 10:40:22;;;;;;;;;73.33;54.67;;;;;7.49;66.94;102404.94;5102241;27;45451;-72
2021/11/11 10:42:50;;;;;;;;;80.25;61.00;;;;;7.51;67.62;102404.94;5088326;27;45461;-73
2021/11/11 10:45:20;;;;;;;;;76.50;57.75;;;;;7.53;67.22;102419.78;5101951;27;45515;-75
2021/11/11 10:47:49;;;;;;;;;76.75;58.25;;;;;7.58;67.64;102426.81;5086152;27;46678;-73
2021/11/11 10:50:22;;;;;;;;;79.25;60.25;;;;;7.60;67.55;102433.81;5088073;27;45620;-73
2021/11/11 10:52:51;;;;;;;;;79.00;58.50;;;;;7.63;68.08;102430.34;5084323;27;45435;-73
2021/11/11 10:55:18;;;;;;;;;81.75;58.50;;;;;7.66;67.78;102425.13;5089349;27;45758;-73
2021/11/11 10:57:49;;;;;;;;;79.00;60.50;;;;;7.68;67.74;102412.06;5089481;27;45867;-73
2021/11/11 11:00:17;;;;;;;;;80.00;59.00;;;;;7.72;68.16;102409.47;5099957;27;45832;-77
2021/11/11 11:03:07;;;;;;;;;83.50;66.00;;;;;7.77;67.86;102391.16;5095467;27;45601;-75
2021/11/11 11:05:34;;;;;;;;;85.50;69.25;;;;;7.79;67.64;102389.44;5086694;27;45643;-79
2021/11/11 11:08:13;;;;;;;;;83.75;70.75;;;;;7.81;67.64;102392.03;5093417;27;45284;-77
2021/11/11 11:10:44;;;;;;;;;83.75;66.00;;;;;7.84;67.58;102379.84;5094706;27;45494;-75
2021/11/11 11:13:16;;;;;;;;;84.00;64.00;;;;;7.90;68.08;102371.16;5101067;27;45440;-75
2021/11/11 11:16:04;;;;;;;;;83.00;69.50;;;;;7.94;67.76;102366.81;5099786;27;45577;-76
2021/11/11 11:18:34;;;;;;;;;84.75;68.25;;;;;7.96;67.69;102355.47;5083533;27;45362;-76
2021/11/11 11:21:11;;;;;;;;;81.75;65.00;;;;;7.98;68.06;102355.47;5079934;28;45357;-76
2021/11/11 11:23:42;;;;;;;;;82.00;66.25;;;;;8.02;68.01;102356.38;5078381;28;45421;-76
2021/11/11 11:26:12;;;;;;;;;84.00;64.00;;;;;8.03;67.68;102351.13;5080019;28;45397;-75
2021/11/11 11:28:48;;;;;;;;;80.50;61.75;;;;;8.07;68.34;102350.28;5080014;28;45727;-76
2021/11/11 11:31:30;;;;;;;;;88.75;73.25;;;;;8.10;68.21;102358.13;5077995;27;45280;-77
2021/11/11 11:34:04;;;;;;;;;86.00;68.75;;;;;8.16;67.90;102367.78;5078917;28;45515;-90
2021/11/11 11:36:39;;;;;;;;;88.75;70.25;;;;;8.20;68.16;102371.25;5078619;28;46202;-80
2021/11/11 11:39:06;;;;;;;;;79.75;61.25;;;;;8.22;68.14;102370.41;5079750;28;45624;-86
2021/11/11 11:41:39;;;;;;;;;82.25;68.25;;;;;8.25;68.05;102374.78;5080260;28;45255;-76
2021/11/11 11:44:35;;;;;;;;;86.00;67.00;;;;;8.30;68.53;102378.28;5079433;28;45425;-76
2021/11/11 11:47:32;;;;;;;;;83.25;66.75;;;;;8.35;67.83;102374.78;5079575;27;45463;-76